Terminal Aerodrome Forecast
Issued by NWS Kansas City/Pleasant Hill, MO

Home | Current Version | Previous Version | Text Only | Print | Product List | Glossary On
Versions: 1 2 3 4 5 6 7 8 9 10 11 12 13 14 15 16 17 18
164
FTUS43 KEAX 011838 AAA
TAFMCI
TAF AMD
KMCI 011838Z 0119/0218 29010KT P6SM VCSH FEW026 BKN045
     FM012000 33011KT P6SM OVC011
     FM020300 34005KT P6SM BKN008
     FM021500 35008KT P6SM BKN015=

USA.gov is the U.S. government's official web portal to all federal, state and local government web resources and services.